Brigantine, New Jersey
Current Conditions -  °F | °C
As of 5:54 AM on Thursday 23 Oct 2014 (Local Time) from KACY Reporting Station
Overcast Overcast  
Wind Chill: 51°   Ceiling: 2100
Heat Index: 51°   Visibility: 10mi
Dew Point: 49°   Wind: 15mph
Humidity: 92%   Direction: 320°NW
Pressure: 29.71"   Gusts: NA
Location:  39.4°N, 74.37°W
Report Text: KACY 230954Z 32013KT 10SM OVC021 11/09 A2971 RMK AO2 SLP059 T01060094
Loading
Personal Weather Stations






























Interactive Weather Map
Tropical Storm Tracking
New forecast layout! Learn more

10-Day Weather Forecast

Advertisements
Track Severe Weather on mobile